Time;durP1;ratioP1;P1;durP2;ratioP2;P2;SDS_P1;SDS_P2;PMS_P1;PMS_P2;Temp;Humidity;BMP_temperature;BMP_pressure;BME280_temperature;BME280_humidity;BME280_pressure;Samples;Min_cycle;Max_cycle;Signal;HPM_P1;HPM_P2
2023/07/25 00:01:04;;;;;;;5.22;4.20;;;17.60;99.90;;;;;;5023680;28;20210;-86
2023/07/25 00:03:31;;;;;;;5.00;3.63;;;17.60;99.90;;;;;;5029866;28;20203;-87
2023/07/25 00:05:58;;;;;;;6.10;3.60;;;17.50;99.90;;;;;;5028689;28;20211;-85
2023/07/25 00:08:24;;;;;;;4.97;4.22;;;17.60;99.90;;;;;;5030291;28;20205;-83
2023/07/25 00:10:51;;;;;;;4.65;3.55;;;17.60;99.90;;;;;;5023825;28;20297;-87
2023/07/25 00:13:18;;;;;;;4.18;3.70;;;17.60;99.90;;;;;;5026360;28;20282;-86
2023/07/25 00:15:47;;;;;;;5.47;4.97;;;17.50;99.90;;;;;;5030676;28;20226;-86
2023/07/25 00:18:13;;;;;;;4.45;4.00;;;17.40;99.90;;;;;;5027444;28;20225;-84
2023/07/25 00:20:40;;;;;;;5.13;3.80;;;17.50;99.90;;;;;;5013823;28;20203;-85
2023/07/25 00:23:07;;;;;;;5.40;4.85;;;17.60;99.90;;;;;;5027187;28;20198;-86
2023/07/25 00:25:34;;;;;;;8.13;7.18;;;17.60;99.90;;;;;;5023628;28;20214;-84
2023/07/25 00:28:01;;;;;;;6.45;5.55;;;17.50;99.90;;;;;;5028572;28;20200;-85
2023/07/25 00:30:28;;;;;;;6.57;3.78;;;17.60;99.90;;;;;;5030556;28;20203;-87
2023/07/25 00:32:56;;;;;;;5.40;4.15;;;17.50;99.90;;;;;;5026211;28;20200;-85
2023/07/25 00:35:24;;;;;;;8.07;6.45;;;17.50;99.90;;;;;;5027429;28;20313;-87
2023/07/25 00:37:51;;;;;;;5.38;4.32;;;17.40;99.90;;;;;;5030814;28;20210;-85
2023/07/25 00:40:18;;;;;;;4.75;4.00;;;17.40;99.90;;;;;;5027954;28;20677;-85
2023/07/25 00:42:45;;;;;;;4.93;4.22;;;17.50;99.90;;;;;;5023317;28;20194;-84
2023/07/25 00:45:12;;;;;;;5.55;4.82;;;17.50;99.90;;;;;;5027295;28;20646;-86
2023/07/25 00:47:39;;;;;;;4.55;4.15;;;17.60;99.90;;;;;;5028272;28;20677;-84
2023/07/25 00:50:10;;;;;;;6.05;4.20;;;17.60;99.90;;;;;;5024440;28;20203;-86
2023/07/25 00:52:37;;;;;;;4.43;4.03;;;17.50;99.90;;;;;;5022882;28;20202;-85
2023/07/25 00:55:05;;;;;;;5.65;4.78;;;17.50;99.90;;;;;;5023481;28;20218;-83
2023/07/25 00:57:32;;;;;;;5.18;4.43;;;17.40;99.90;;;;;;5021516;28;20198;-85
2023/07/25 00:59:59;;;;;;;5.80;3.90;;;17.30;99.90;;;;;;5027950;28;20209;-83
2023/07/25 01:02:26;;;;;;;5.20;4.05;;;17.30;99.90;;;;;;5019780;28;20616;-85
2023/07/25 01:04:53;;;;;;;4.47;3.95;;;17.30;99.90;;;;;;5008174;28;20233;-86
2023/07/25 01:07:22;;;;;;;6.78;4.82;;;17.20;99.90;;;;;;5027416;28;20199;-87
2023/07/25 01:09:49;;;;;;;5.53;5.03;;;17.20;99.90;;;;;;5028770;28;20655;-86
2023/07/25 01:12:16;;;;;;;5.63;5.13;;;17.20;99.90;;;;;;5028019;28;20244;-83
2023/07/25 01:14:43;;;;;;;5.20;4.70;;;17.20;99.90;;;;;;5024390;28;20678;-85
2023/07/25 01:17:12;;;;;;;5.55;4.50;;;17.20;99.90;;;;;;5021476;28;20212;-83
2023/07/25 01:19:41;;;;;;;7.50;4.57;;;17.20;99.90;;;;;;5028063;28;20257;-86
2023/07/25 01:22:08;;;;;;;7.35;5.15;;;17.20;99.90;;;;;;5022468;28;20198;-85
2023/07/25 01:24:38;;;;;;;6.18;4.90;;;17.20;99.90;;;;;;5018245;28;20203;-84
2023/07/25 01:27:05;;;;;;;5.18;4.25;;;17.20;99.90;;;;;;5023753;28;20205;-85
2023/07/25 01:29:32;;;;;;;5.50;4.35;;;17.20;99.90;;;;;;5026524;28;20199;-85
2023/07/25 01:31:59;;;;;;;6.35;4.00;;;17.20;99.90;;;;;;5011123;28;20252;-85
2023/07/25 01:34:26;;;;;;;6.22;4.28;;;17.20;99.90;;;;;;5023638;28;20229;-86
2023/07/25 01:36:53;;;;;;;6.28;5.63;;;17.20;99.90;;;;;;5020476;28;20225;-86
2023/07/25 01:39:20;;;;;;;7.63;4.97;;;17.20;99.90;;;;;;5027745;28;20203;-85
2023/07/25 01:41:48;;;;;;;4.57;3.53;;;17.20;99.90;;;;;;5022019;28;20286;-85
2023/07/25 01:44:15;;;;;;;7.13;5.10;;;17.20;99.90;;;;;;5022157;28;20236;-86
2023/07/25 01:46:43;;;;;;;5.70;4.07;;;17.20;99.90;;;;;;5005083;28;20226;-85
2023/07/25 01:49:10;;;;;;;6.55;3.90;;;17.20;99.90;;;;;;5028207;28;20660;-84
2023/07/25 01:51:37;;;;;;;4.07;3.72;;;17.20;99.90;;;;;;5025638;28;20210;-84
2023/07/25 01:54:05;;;;;;;4.38;3.97;;;17.30;99.90;;;;;;5025020;28;20207;-83
2023/07/25 01:56:32;;;;;;;4.47;3.45;;;17.30;99.90;;;;;;5028589;28;20655;-82
2023/07/25 01:59:01;;;;;;;6.50;3.45;;;17.30;99.90;;;;;;5025882;28;20225;-89
2023/07/25 02:01:27;;;;;;;5.60;3.53;;;17.30;99.90;;;;;;5026574;28;20210;-84
2023/07/25 02:03:55;;;;;;;4.10;3.70;;;17.30;99.90;;;;;;5025741;28;20202;-87
2023/07/25 02:06:21;;;;;;;4.18;3.45;;;17.30;99.90;;;;;;5025333;28;20202;-85
2023/07/25 02:08:48;;;;;;;5.10;3.42;;;17.20;99.90;;;;;;5025373;28;20209;-86
2023/07/25 02:11:15;;;;;;;4.70;3.20;;;17.30;99.90;;;;;;5029425;28;20213;-85
2023/07/25 02:13:42;;;;;;;5.18;4.70;;;17.20;99.90;;;;;;5022517;28;20191;-86
2023/07/25 02:16:10;;;;;;;5.55;4.13;;;17.20;99.90;;;;;;5021413;28;20310;-83
2023/07/25 02:18:37;;;;;;;4.57;3.92;;;17.20;99.90;;;;;;5024202;28;20219;-85
2023/07/25 02:21:05;;;;;;;5.72;3.30;;;17.30;99.90;;;;;;5025883;28;20221;-84
2023/07/25 02:23:32;;;;;;;3.72;3.30;;;17.40;99.90;;;;;;5015770;28;20203;-84
2023/07/25 02:25:59;;;;;;;4.50;3.65;;;17.40;99.90;;;;;;5026750;28;20203;-83
2023/07/25 02:28:26;;;;;;;4.45;3.67;;;17.30;99.90;;;;;;5011671;28;20256;-87
2023/07/25 02:30:53;;;;;;;4.22;3.47;;;17.30;99.90;;;;;;5008828;28;20207;-85
2023/07/25 02:33:21;;;;;;;3.85;3.50;;;17.30;99.90;;;;;;5020222;28;20210;-84
2023/07/25 02:35:48;;;;;;;7.00;3.45;;;17.40;99.90;;;;;;5032546;28;20434;-85
2023/07/25 02:38:16;;;;;;;4.20;3.63;;;17.70;99.90;;;;;;5006963;28;20206;-86
2023/07/25 02:40:43;;;;;;;4.38;3.40;;;17.70;99.90;;;;;;5028421;28;20199;-84
2023/07/25 02:43:10;;;;;;;4.68;4.25;;;17.60;99.90;;;;;;5026127;28;20244;-84
2023/07/25 02:45:37;;;;;;;3.63;3.30;;;17.40;99.90;;;;;;5013053;28;20199;-83
2023/07/25 02:48:04;;;;;;;5.05;4.03;;;17.30;99.90;;;;;;5005693;28;20258;-87
2023/07/25 02:50:33;;;;;;;5.07;4.30;;;17.20;99.90;;;;;;5023792;28;20214;-86
2023/07/25 02:53:00;;;;;;;4.22;3.50;;;17.10;99.90;;;;;;5028038;28;20670;-84
2023/07/25 02:55:27;;;;;;;4.88;3.97;;;17.10;99.90;;;;;;5028389;28;20759;-86
2023/07/25 02:57:54;;;;;;;4.05;3.65;;;17.00;99.90;;;;;;5012655;28;20210;-86
2023/07/25 03:00:21;;;;;;;3.65;3.30;;;17.00;99.90;;;;;;5030860;28;20202;-83
2023/07/25 03:02:48;;;;;;;4.63;3.88;;;17.00;99.90;;;;;;5014215;28;20307;-84
2023/07/25 03:05:17;;;;;;;4.00;3.60;;;16.90;99.90;;;;;;5013996;28;20210;-86
2023/07/25 03:07:46;;;;;;;4.97;3.30;;;17.00;99.90;;;;;;5025809;28;20277;-86
2023/07/25 03:10:14;;;;;;;4.45;3.80;;;16.90;99.90;;;;;;5028726;28;20195;-83
2023/07/25 03:12:41;;;;;;;4.82;3.60;;;16.90;99.90;;;;;;5029324;28;20222;-84
2023/07/25 03:15:08;;;;;;;5.15;3.72;;;16.90;99.90;;;;;;5013710;28;20226;-85
2023/07/25 03:17:35;;;;;;;4.70;3.72;;;16.80;99.90;;;;;;5026987;28;20229;-85
2023/07/25 03:20:01;;;;;;;4.22;3.70;;;16.70;99.90;;;;;;5016809;28;20199;-85
2023/07/25 03:22:28;;;;;;;3.75;3.45;;;16.70;99.90;;;;;;5023593;28;20198;-85
2023/07/25 03:24:57;;;;;;;6.88;3.70;;;16.70;99.90;;;;;;5031278;28;20209;-83
2023/07/25 03:27:24;;;;;;;4.20;3.80;;;16.70;99.90;;;;;;5014563;28;20218;-87
2023/07/25 03:29:51;;;;;;;4.07;3.67;;;16.70;99.90;;;;;;5025862;28;21606;-84
2023/07/25 03:32:17;;;;;;;3.53;3.22;;;16.70;99.90;;;;;;5028799;28;21514;-84
2023/07/25 03:34:44;;;;;;;3.83;3.53;;;16.80;99.90;;;;;;5032488;28;20194;-82
2023/07/25 03:37:11;;;;;;;5.55;3.42;;;16.80;99.90;;;;;;5013865;28;20210;-85
2023/07/25 03:39:38;;;;;;;4.35;3.25;;;16.90;99.90;;;;;;5026676;28;20679;-85
2023/07/25 03:42:09;;;;;;;6.13;3.55;;;17.00;99.90;;;;;;5023653;28;20270;-85
2023/07/25 03:44:36;;;;;;;6.55;3.60;;;16.90;99.90;;;;;;5024004;28;20201;-83
2023/07/25 03:47:03;;;;;;;4.75;3.90;;;16.90;99.90;;;;;;5029409;28;20201;-85
2023/07/25 03:49:30;;;;;;;6.30;3.53;;;16.80;99.90;;;;;;5027268;28;20667;-86
2023/07/25 03:51:57;;;;;;;4.28;3.38;;;16.70;99.90;;;;;;5029348;28;20194;-84
2023/07/25 03:54:25;;;;;;;3.58;3.20;;;16.70;99.90;;;;;;5016219;28;20195;-87
2023/07/25 03:56:52;;;;;;;4.25;3.47;;;16.70;99.90;;;;;;5021243;28;20226;-84
2023/07/25 03:59:21;;;;;;;5.25;3.63;;;16.70;99.90;;;;;;4995581;28;20207;-85
2023/07/25 04:01:48;;;;;;;4.85;4.13;;;16.60;99.90;;;;;;5027880;28;20218;-85
2023/07/25 04:04:15;;;;;;;4.35;3.92;;;16.60;99.90;;;;;;5032873;28;20202;-83
2023/07/25 04:06:42;;;;;;;5.78;3.78;;;16.50;99.90;;;;;;5022702;28;20214;-85
2023/07/25 04:09:09;;;;;;;6.30;3.78;;;16.50;99.90;;;;;;5027922;28;20191;-84
2023/07/25 04:11:36;;;;;;;7.10;3.97;;;16.50;99.90;;;;;;5026718;28;20651;-89
2023/07/25 04:14:03;;;;;;;4.10;3.20;;;16.50;99.90;;;;;;5029719;28;20198;-88
2023/07/25 04:16:32;;;;;;;4.43;3.58;;;16.60;99.90;;;;;;5025908;28;20288;-85
2023/07/25 04:18:58;;;;;;;4.30;3.50;;;16.60;99.90;;;;;;5026529;28;20223;-86
2023/07/25 04:21:25;;;;;;;5.32;3.65;;;16.60;99.90;;;;;;5029748;28;20691;-86
2023/07/25 04:23:52;;;;;;;5.18;3.50;;;16.60;99.90;;;;;;5031303;28;20669;-89
2023/07/25 04:26:19;;;;;;;4.50;3.67;;;16.50;99.90;;;;;;5022000;28;20210;-87
2023/07/25 04:28:48;;;;;;;4.55;3.65;;;16.50;99.90;;;;;;4998542;28;20198;-83
2023/07/25 04:31:15;;;;;;;6.75;3.97;;;16.50;99.90;;;;;;5027510;28;20201;-87
2023/07/25 04:33:44;;;;;;;3.97;3.58;;;16.50;99.90;;;;;;5020566;28;20252;-85
2023/07/25 04:36:11;;;;;;;7.18;3.30;;;16.50;99.90;;;;;;5010682;28;20223;-88
2023/07/25 04:38:38;;;;;;;4.57;3.53;;;16.50;99.90;;;;;;5014219;28;20640;-86
2023/07/25 04:41:05;;;;;;;4.25;3.50;;;16.40;99.90;;;;;;5028519;28;20655;-90
2023/07/25 04:43:32;;;;;;;5.75;3.63;;;16.50;99.90;;;;;;5026139;28;20870;-87
2023/07/25 04:45:59;;;;;;;5.80;3.38;;;16.50;99.90;;;;;;5026280;28;20214;-88
2023/07/25 04:48:27;;;;;;;4.38;3.20;;;16.40;99.90;;;;;;5024098;28;20206;-87
2023/07/25 04:50:55;;;;;;;5.22;3.47;;;16.50;99.90;;;;;;5027635;28;20852;-87
2023/07/25 04:53:22;;;;;;;3.90;3.42;;;16.40;99.90;;;;;;5012039;28;20190;-89
2023/07/25 04:55:49;;;;;;;4.05;3.42;;;16.40;99.90;;;;;;5021944;28;20218;-88
2023/07/25 04:58:16;;;;;;;6.57;3.58;;;16.40;99.90;;;;;;5025337;28;20194;-88
2023/07/25 05:00:43;;;;;;;5.40;3.55;;;16.40;99.90;;;;;;5024495;28;20191;-87
2023/07/25 05:03:10;;;;;;;4.10;3.40;;;16.40;99.90;;;;;;5030908;28;20577;-85
2023/07/25 05:05:37;;;;;;;6.53;3.42;;;16.40;99.90;;;;;;5029326;28;20202;-84
2023/07/25 05:08:05;;;;;;;4.07;3.45;;;16.40;99.90;;;;;;5029577;28;20198;-85
2023/07/25 05:10:35;;;;;;;7.25;3.70;;;16.40;99.90;;;;;;5022530;28;20202;-85
2023/07/25 05:13:02;;;;;;;4.82;3.42;;;16.40;99.90;;;;;;5026312;28;20221;-89
2023/07/25 05:15:29;;;;;;;4.93;3.75;;;16.40;99.90;;;;;;5004841;28;20229;-87
2023/07/25 05:17:56;;;;;;;4.55;3.97;;;16.40;99.90;;;;;;5100642;22;20234;-90
2023/07/25 05:20:23;;;;;;;3.70;3.30;;;16.50;99.90;;;;;;5039367;28;20210;-90
2023/07/25 05:29:14;;;;;;;3.88;3.13;;;16.50;99.90;;;;;;5008329;28;20225;-91
2023/07/25 05:32:15;;;;;;;4.50;3.20;;;16.50;99.90;;;;;;5046653;28;20214;-92
2023/07/25 05:34:42;;;;;;;7.43;3.70;;;16.50;99.90;;;;;;5051080;28;20201;-91
2023/07/25 05:37:09;;;;;;;4.22;3.40;;;16.60;99.90;;;;;;5012537;28;20226;-91
2023/07/25 05:43:18;;;;;;;4.05;3.60;;;16.50;99.90;;;;;;5044093;28;20183;-93
2023/07/25 05:45:44;;;;;;;4.40;3.45;;;16.40;99.90;;;;;;5036663;28;20705;-91
2023/07/25 05:48:11;;;;;;;4.05;3.22;;;16.40;99.90;;;;;;5036219;28;20198;-91
2023/07/25 05:50:38;;;;;;;5.88;3.45;;;16.40;99.90;;;;;;5037127;28;20717;-92
2023/07/25 05:53:05;;;;;;;8.38;3.65;;;16.40;99.90;;;;;;4998330;28;20253;-91
2023/07/25 05:55:32;;;;;;;4.93;3.50;;;16.40;99.90;;;;;;5044353;28;20647;-85
2023/07/25 05:57:59;;;;;;;4.57;3.70;;;16.40;99.90;;;;;;5028022;28;20203;-86
2023/07/25 06:00:28;;;;;;;4.70;3.88;;;16.40;99.90;;;;;;5017355;28;20209;-91
2023/07/25 06:02:55;;;;;;;8.05;3.67;;;16.50;99.90;;;;;;5037353;28;20195;-88
2023/07/25 06:05:22;;;;;;;4.55;3.97;;;16.50;99.90;;;;;;5034264;28;20280;-88
2023/07/25 06:07:49;;;;;;;4.65;4.13;;;16.50;99.90;;;;;;5012974;28;20732;-89
2023/07/25 06:10:16;;;;;;;5.28;3.85;;;16.60;99.90;;;;;;5013915;28;20232;-88
2023/07/25 06:12:44;;;;;;;6.28;3.58;;;16.70;99.90;;;;;;5027676;28;20662;-87
2023/07/25 06:15:11;;;;;;;5.30;4.10;;;16.70;99.90;;;;;;5015643;28;20198;-86
2023/07/25 06:17:39;;;;;;;5.47;3.70;;;16.70;99.90;;;;;;5027985;28;20227;-89
2023/07/25 06:20:07;;;;;;;4.25;3.72;;;16.70;99.90;;;;;;5007834;28;20217;-89
2023/07/25 06:22:37;;;;;;;6.25;3.88;;;16.70;99.90;;;;;;4987897;28;20622;-88
2023/07/25 06:25:04;;;;;;;5.97;3.72;;;16.80;99.90;;;;;;4995544;28;20226;-90
2023/07/25 06:27:31;;;;;;;5.38;3.80;;;16.90;99.90;;;;;;4986791;28;20258;-89
2023/07/25 06:29:58;;;;;;;7.75;3.80;;;16.90;99.90;;;;;;5013398;28;20203;-88
2023/07/25 06:32:25;;;;;;;5.40;4.43;;;17.00;99.90;;;;;;4995984;28;20216;-88
2023/07/25 06:34:53;;;;;;;4.95;3.90;;;17.00;99.90;;;;;;4990279;28;20602;-87
2023/07/25 06:37:20;;;;;;;4.05;3.65;;;17.10;99.90;;;;;;5006790;28;20224;-90
2023/07/25 06:39:47;;;;;;;4.90;3.65;;;17.10;99.90;;;;;;5009804;28;20644;-87
2023/07/25 06:42:14;;;;;;;4.90;3.05;;;17.10;99.90;;;;;;4975373;28;20203;-89
2023/07/25 06:44:41;;;;;;;5.85;3.80;;;17.20;99.90;;;;;;5007923;28;20206;-89
2023/07/25 06:47:08;;;;;;;5.82;3.78;;;17.20;99.90;;;;;;5009185;28;20200;-89
2023/07/25 06:49:35;;;;;;;8.27;4.00;;;17.20;99.90;;;;;;5009259;28;20220;-88
2023/07/25 06:52:04;;;;;;;5.22;3.45;;;17.20;99.90;;;;;;5006878;28;20639;-89
2023/07/25 06:54:31;;;;;;;5.63;3.75;;;17.20;99.90;;;;;;5008796;28;20563;-87
2023/07/25 06:56:58;;;;;;;6.70;4.75;;;17.20;99.90;;;;;;5006451;28;20215;-89
2023/07/25 06:59:25;;;;;;;4.45;3.90;;;17.30;99.90;;;;;;4994641;28;20215;-88
2023/07/25 07:01:52;;;;;;;7.70;3.90;;;17.40;99.90;;;;;;5015081;28;20226;-89
2023/07/25 07:04:20;;;;;;;3.30;3.00;;;17.50;99.90;;;;;;5007271;28;20204;-88
2023/07/25 07:06:46;;;;;;;5.35;3.42;;;17.60;99.90;;;;;;5003123;28;20208;-90
2023/07/25 07:09:15;;;;;;;5.00;3.33;;;17.50;99.90;;;;;;5009455;28;20648;-89
2023/07/25 07:11:42;;;;;;;8.45;3.55;;;17.60;99.90;;;;;;5010697;28;20199;-87
2023/07/25 07:14:09;;;;;;;3.78;3.20;;;17.60;99.90;;;;;;5003077;28;20200;-87
2023/07/25 07:16:36;;;;;;;5.22;3.60;;;17.70;99.90;;;;;;5005534;28;20727;-90
2023/07/25 07:19:03;;;;;;;6.05;3.58;;;17.70;99.90;;;;;;4999585;28;20284;-88
2023/07/25 07:21:30;;;;;;;4.43;3.28;;;17.80;99.90;;;;;;4994488;28;20207;-88
2023/07/25 07:23:57;;;;;;;5.90;3.08;;;17.80;99.90;;;;;;5009487;28;20206;-89
2023/07/25 07:26:26;;;;;;;3.78;3.30;;;17.90;99.90;;;;;;4996594;28;20217;-90
2023/07/25 07:28:53;;;;;;;4.45;3.42;;;17.90;99.90;;;;;;5013266;28;20199;-91
2023/07/25 07:31:23;;;;;;;5.38;3.17;;;17.90;99.90;;;;;;5007918;28;20192;-91
2023/07/25 07:33:50;;;;;;;4.78;3.85;;;18.00;99.90;;;;;;4994258;28;20206;-92
2023/07/25 07:36:17;;;;;;;3.88;3.22;;;18.20;99.90;;;;;;5001893;28;20231;-90
2023/07/25 07:38:44;;;;;;;5.00;3.60;;;18.20;99.90;;;;;;4993887;28;20923;-90
2023/07/25 07:41:11;;;;;;;3.60;3.30;;;18.30;99.90;;;;;;5007043;28;20194;-89
2023/07/25 07:43:39;;;;;;;3.08;2.80;;;18.40;99.90;;;;;;4994871;28;20211;-88
2023/07/25 07:46:06;;;;;;;3.88;3.10;;;18.50;98.90;;;;;;5012249;28;20208;-89
2023/07/25 07:48:34;;;;;;;3.40;3.10;;;18.50;98.30;;;;;;4996845;28;20679;-89
2023/07/25 07:51:03;;;;;;;3.45;3.15;;;18.70;97.80;;;;;;5007728;28;20225;-90
2023/07/25 07:53:30;;;;;;;4.53;3.25;;;18.80;97.80;;;;;;5013012;28;20203;-88
2023/07/25 07:55:57;;;;;;;5.78;3.63;;;18.90;97.60;;;;;;4993022;28;20207;-89
2023/07/25 07:58:24;;;;;;;3.35;3.05;;;19.00;97.50;;;;;;5010466;28;20203;-89
2023/07/25 08:00:53;;;;;;;3.83;3.17;;;19.10;97.90;;;;;;5012926;28;20199;-90
2023/07/25 08:03:19;;;;;;;3.33;3.03;;;19.00;97.60;;;;;;5010790;28;20221;-88
2023/07/25 08:05:47;;;;;;;3.80;3.45;;;19.10;97.90;;;;;;5008877;28;20679;-91
2023/07/25 08:08:15;;;;;;;3.60;3.00;;;19.10;97.40;;;;;;4995804;28;20203;-91
2023/07/25 08:10:42;;;;;;;3.70;3.03;;;19.20;96.90;;;;;;5020801;28;20198;-88
2023/07/25 08:13:08;;;;;;;3.28;2.88;;;19.30;96.80;;;;;;5012815;28;20191;-89
2023/07/25 08:15:35;;;;;;;4.97;3.35;;;19.30;96.40;;;;;;5008140;28;20206;-90
2023/07/25 08:20:48;;;;;;;3.05;2.75;;;19.30;95.30;;;;;;5003302;28;20254;-91
2023/07/25 08:23:15;;;;;;;2.90;2.70;;;19.10;95.80;;;;;;5022022;28;20241;-92
2023/07/25 08:25:42;;;;;;;3.53;3.05;;;18.90;96.10;;;;;;5017365;28;20195;-91
2023/07/25 08:28:20;;;;;;;3.35;2.70;;;18.80;96.30;;;;;;5026407;28;20203;-91
2023/07/25 08:30:47;;;;;;;4.15;3.00;;;18.70;96.10;;;;;;5026633;28;20203;-89
2023/07/25 08:33:18;;;;;;;3.47;2.80;;;18.50;96.40;;;;;;5016666;28;20231;-90
2023/07/25 08:35:47;;;;;;;3.25;2.95;;;18.40;96.80;;;;;;4998610;28;20199;-89
2023/07/25 08:38:14;;;;;;;2.67;2.47;;;18.20;97.70;;;;;;5022921;28;20225;-91
2023/07/25 08:43:31;;;;;;;3.58;3.08;;;18.00;97.60;;;;;;4972331;28;20205;-93
2023/07/25 08:45:59;;;;;;;3.97;2.85;;;17.90;97.60;;;;;;5018864;28;20298;-89
2023/07/25 08:48:30;;;;;;;3.88;3.40;;;17.70;97.50;;;;;;4989754;28;20241;-87
2023/07/25 08:51:00;;;;;;;4.78;3.67;;;17.70;97.60;;;;;;4978731;28;20673;-89
2023/07/25 08:53:29;;;;;;;8.60;7.57;;;17.70;97.80;;;;;;5007776;28;20668;-90
2023/07/25 08:55:56;;;;;;;10.25;9.23;;;17.80;97.60;;;;;;5014610;28;20873;-87
2023/07/25 08:58:26;;;;;;;3.45;3.15;;;17.90;96.90;;;;;;5014349;28;20215;-92
2023/07/25 09:03:39;;;;;;;6.43;4.60;;;17.80;96.50;;;;;;4993913;28;20199;-92
2023/07/25 09:06:07;;;;;;;3.53;3.05;;;17.80;97.10;;;;;;4989261;28;20238;-91
2023/07/25 09:08:34;;;;;;;4.00;3.00;;;17.80;97.60;;;;;;4995184;28;20211;-93
2023/07/25 09:11:03;;;;;;;5.15;3.40;;;17.90;97.10;;;;;;5012801;28;20214;-92
2023/07/25 09:13:30;;;;;;;8.10;5.60;;;17.80;97.60;;;;;;5011088;28;20679;-91
2023/07/25 09:15:58;;;;;;;28.30;24.02;;;17.80;97.00;;;;;;4996798;28;20203;-92
2023/07/25 09:18:25;;;;;;;4.15;2.95;;;17.80;97.60;;;;;;5013545;28;20231;-93
2023/07/25 09:20:53;;;;;;;6.75;4.72;;;17.90;97.60;;;;;;5019479;28;20203;-92
2023/07/25 09:23:24;;;;;;;17.85;15.02;;;17.90;97.20;;;;;;5016156;28;20206;-88
2023/07/25 09:26:03;;;;;;;4.43;4.03;;;17.90;97.60;;;;;;5015275;28;20287;-89
2023/07/25 09:28:30;;;;;;;13.00;11.75;;;17.80;97.60;;;;;;5015682;28;20210;-92
2023/07/25 09:30:57;;;;;;;3.92;3.10;;;17.90;97.60;;;;;;5017896;28;20203;-90
2023/07/25 09:33:26;;;;;;;28.55;25.50;;;17.80;97.60;;;;;;5009638;28;20198;-91
2023/07/25 09:38:48;;;;;;;9.10;8.20;;;17.80;97.60;;;;;;5027352;28;20222;-93
2023/07/25 09:41:15;;;;;;;19.42;17.48;;;17.80;97.80;;;;;;5024181;28;20199;-92
2023/07/25 09:43:42;;;;;;;12.43;11.15;;;17.90;96.90;;;;;;5002534;28;20208;-93
2023/07/25 09:46:10;;;;;;;10.02;8.75;;;17.90;96.30;;;;;;5028343;28;20230;-92
2023/07/25 09:48:37;;;;;;;10.60;9.52;;;17.90;95.80;;;;;;5058129;28;20195;-90
2023/07/25 09:54:48;;;;;;;3.40;2.97;;;18.10;96.40;;;;;;5000919;28;20200;-91
2023/07/25 10:01:17;;;;;;;3.40;2.38;;;18.20;94.70;;;;;;4957895;29;20230;-91
2023/07/25 10:13:15;;;;;;;23.02;6.97;;;18.80;95.10;;;;;;4963586;28;20199;-90
2023/07/25 10:15:43;;;;;;;4.53;2.67;;;19.10;93.60;;;;;;5005940;28;20207;-92
2023/07/25 10:18:20;;;;;;;7.88;4.13;;;19.30;91.00;;;;;;5022277;28;20226;-90
2023/07/25 10:20:47;;;;;;;7.88;3.10;;;19.60;90.70;;;;;;4997581;28;20278;-91
2023/07/25 10:23:14;;;;;;;4.68;3.17;;;19.60;89.00;;;;;;5016769;28;20284;-91
2023/07/25 10:25:43;;;;;;;4.88;2.47;;;19.70;88.20;;;;;;5005288;28;20209;-91
2023/07/25 10:28:11;;;;;;;4.10;2.88;;;19.70;90.20;;;;;;5002577;28;20255;-89
2023/07/25 10:30:44;;;;;;;2.65;2.13;;;19.80;88.00;;;;;;5004774;28;20203;-90
2023/07/25 10:57:33;;;;;;;8.98;8.02;;;21.40;65.50;;;;;;4963413;29;20197;-90
2023/07/25 11:00:04;;;;;;;4.80;4.32;;;21.80;47.80;;;;;;4954197;29;20209;-86
2023/07/25 11:02:51;;;;;;;12.35;11.20;;;21.70;50.20;;;;;;4960199;29;20390;-90
2023/07/25 11:08:41;;;;;;;20.27;18.35;;;21.60;45.40;;;;;;4952825;28;20228;-87
2023/07/25 11:11:12;;;;;;;3.08;2.25;;;21.20;55.40;;;;;;4960094;28;20199;-92
2023/07/25 11:28:00;;;;;;;22.45;20.05;;;20.60;72.40;;;;;;5028922;28;20282;-90
2023/07/25 11:30:29;;;;;;;35.40;31.48;;;20.90;69.60;;;;;;5566967;22;21012;-91
2023/07/25 11:32:56;;;;;;;8.93;8.05;;;21.10;58.60;;;;;;5050773;28;20251;-88
2023/07/25 11:35:24;;;;;;;61.00;54.33;;;21.10;60.50;;;;;;5035539;28;21520;-88
2023/07/25 11:37:59;;;;;;;5.40;4.90;;;21.20;61.90;;;;;;5011008;28;20233;-85
2023/07/25 11:40:29;;;;;;;5.00;2.03;;;21.40;64.10;;;;;;5041526;28;20206;-91
2023/07/25 11:45:40;;;;;;;2.17;2.00;;;22.70;48.40;;;;;;5021901;28;20206;-85
2023/07/25 11:48:08;;;;;;;2.97;2.75;;;22.70;43.60;;;;;;5029486;28;20194;-87
2023/07/25 11:50:36;;;;;;;19.27;17.48;;;22.50;47.40;;;;;;5028241;28;20257;-88
2023/07/25 11:53:03;;;;;;;5.22;4.78;;;22.20;46.40;;;;;;5034642;28;20202;-86
2023/07/25 11:55:33;;;;;;;14.20;12.68;;;21.90;47.70;;;;;;5037295;28;20281;-88
2023/07/25 11:58:03;;;;;;;8.52;7.50;;;21.60;53.00;;;;;;5032460;28;20968;-83
2023/07/25 12:00:41;;;;;;;3.15;2.35;;;21.40;49.30;;;;;;5035283;28;20208;-88
2023/07/25 12:03:17;;;;;;;11.40;10.15;;;21.10;36.10;;;;;;5000692;28;20241;-90
2023/07/25 12:05:51;;;;;;;10.45;8.45;;;20.30;38.40;;;;;;5018063;28;20225;-90
2023/07/25 12:08:31;;;;;;;22.58;20.20;;;20.00;51.40;;;;;;5017585;28;20198;-89
2023/07/25 12:16:37;;;;;;;11.32;9.63;;;19.80;48.70;;;;;;5030041;28;20290;-88
2023/07/25 12:19:06;;;;;;;5.25;2.50;;;19.80;49.30;;;;;;5000374;28;20587;-87
2023/07/25 12:21:34;;;;;;;6.03;4.75;;;19.70;49.10;;;;;;5021337;28;20198;-85
2023/07/25 12:24:03;;;;;;;5.50;3.28;;;19.40;59.70;;;;;;4995730;28;20195;-91
2023/07/25 12:29:49;;;;;;;6.20;2.33;;;19.10;77.80;;;;;;5009842;28;21073;-88
2023/07/25 12:32:17;;;;;;;3.95;2.30;;;19.10;81.70;;;;;;5010397;28;20222;-91
2023/07/25 12:34:45;;;;;;;5.03;2.63;;;18.90;89.70;;;;;;5027247;28;20230;-91
2023/07/25 12:37:11;;;;;;;4.72;2.05;;;19.00;88.60;;;;;;5031490;28;20265;-87
2023/07/25 12:39:39;;;;;;;3.20;2.55;;;19.20;90.80;;;;;;5022556;28;20675;-91
2023/07/25 12:42:08;;;;;;;2.40;2.20;;;19.70;87.80;;;;;;4995855;28;20767;-87
2023/07/25 12:44:35;;;;;;;5.22;2.45;;;20.20;85.30;;;;;;5006726;28;20203;-90
2023/07/25 12:47:04;;;;;;;5.05;2.40;;;20.40;84.50;;;;;;5018518;28;20199;-90
2023/07/25 12:49:32;;;;;;;4.03;2.15;;;20.70;82.00;;;;;;5019890;28;20223;-89
2023/07/25 12:54:40;;;;;;;2.78;2.30;;;20.90;81.40;;;;;;4986296;28;20206;-90
2023/07/25 12:57:09;;;;;;;4.97;2.33;;;20.70;81.30;;;;;;5011853;28;20195;-86
2023/07/25 13:02:19;;;;;;;3.22;2.20;;;20.30;78.10;;;;;;4979499;28;20220;-89
2023/07/25 13:04:46;;;;;;;4.32;2.20;;;20.10;80.90;;;;;;5000525;28;20673;-90
2023/07/25 13:09:56;;;;;;;3.53;2.35;;;19.80;83.00;;;;;;5005043;28;20656;-92
2023/07/25 13:18:30;;;;;;;4.22;2.40;;;21.00;75.20;;;;;;4946809;28;20268;-89
2023/07/25 13:23:40;;;;;;;3.13;2.17;;;21.40;66.60;;;;;;4975501;28;20754;-86
2023/07/25 13:32:39;;;;;;;3.47;2.20;;;21.40;54.70;;;;;;4990716;28;20734;-87
2023/07/25 13:37:53;;;;;;;44.80;40.28;;;21.20;57.00;;;;;;4980010;28;20763;-87
2023/07/25 13:46:02;;;;;;;3.10;2.80;;;21.40;53.70;;;;;;5030503;28;20205;-90
2023/07/25 13:49:02;;;;;;;4.40;2.00;;;21.50;57.30;;;;;;5015109;28;20214;-89
2023/07/25 14:03:44;;;;;;;3.97;2.20;;;22.00;48.50;;;;;;5029912;28;20199;-87
2023/07/25 14:06:13;;;;;;;26.85;23.98;;;22.00;50.50;;;;;;5030162;28;20194;-90
2023/07/25 14:08:41;;;;;;;6.10;2.70;;;22.00;50.40;;;;;;5034257;28;20281;-90
2023/07/25 14:11:10;;;;;;;16.13;14.45;;;21.80;50.40;;;;;;4985743;28;20207;-89
2023/07/25 14:16:32;;;;;;;4.53;3.85;;;21.40;53.60;;;;;;5025900;28;20206;-88
2023/07/25 14:24:23;;;;;;;2.70;1.83;;;21.40;57.20;;;;;;5601842;22;20222;-89
2023/07/25 14:26:50;;;;;;;3.15;2.13;;;21.60;57.40;;;;;;5036208;28;20285;-83
2023/07/25 14:29:16;;;;;;;2.75;2.00;;;21.60;57.40;;;;;;5011776;28;20213;-86
2023/07/25 14:31:43;;;;;;;2.92;2.63;;;21.50;57.30;;;;;;5026737;28;20207;-93
2023/07/25 14:34:10;;;;;;;4.22;3.00;;;21.50;60.70;;;;;;5028639;28;20563;-85
2023/07/25 14:36:37;;;;;;;2.47;2.28;;;21.30;60.00;;;;;;5030962;28;20677;-87
2023/07/25 14:39:05;;;;;;;2.60;2.03;;;21.30;52.20;;;;;;5030292;28;20218;-83
2023/07/25 14:41:32;;;;;;;2.30;1.83;;;21.20;46.30;;;;;;5005595;28;20252;-85
2023/07/25 14:43:59;;;;;;;6.45;2.22;;;20.90;37.20;;;;;;5029601;28;20767;-87
2023/07/25 14:46:27;;;;;;;3.45;2.13;;;20.60;42.50;;;;;;5033215;28;20277;-84
2023/07/25 14:48:53;;;;;;;3.38;2.50;;;20.30;44.10;;;;;;5004815;28;20261;-86
2023/07/25 14:51:20;;;;;;;3.33;2.17;;;20.00;47.50;;;;;;5031040;28;20202;-85
2023/07/25 14:53:47;;;;;;;4.97;2.80;;;19.90;46.70;;;;;;5030184;28;20194;-86
2023/07/25 14:56:16;;;;;;;6.10;2.83;;;19.70;70.80;;;;;;5033717;28;20257;-87
2023/07/25 14:58:42;;;;;;;22.58;17.95;;;19.30;80.30;;;;;;5033421;28;20230;-84
2023/07/25 15:01:09;;;;;;;16.08;12.60;;;18.80;90.40;;;;;;5030016;28;20209;-83
2023/07/25 15:03:36;;;;;;;20.70;13.57;;;18.80;90.70;;;;;;5038020;28;20199;-89
2023/07/25 15:06:03;;;;;;;22.65;17.65;;;18.90;91.80;;;;;;5041323;28;20199;-91
2023/07/25 15:08:30;;;;;;;29.35;25.48;;;18.90;92.40;;;;;;5040075;28;20211;-90
2023/07/25 15:10:57;;;;;;;26.90;21.08;;;19.10;92.40;;;;;;5020576;28;20201;-89
2023/07/25 15:13:26;;;;;;;13.98;12.32;;;19.30;92.50;;;;;;5028889;28;20206;-88